sensor_id;sensor_type;location;lat;lon;timestamp;P1;P2;P0
73565;PMS5003;61846;52.970;-3.168;2022-11-04T00:00:14;5;4;
73565;PMS5003;61846;52.970;-3.168;2022-11-04T00:02:39;8;6;
73565;PMS5003;61846;52.970;-3.168;2022-11-04T00:05:05;5;4;
73565;PMS5003;61846;52.970;-3.168;2022-11-04T00:07:30;6;4;
73565;PMS5003;61846;52.970;-3.168;2022-11-04T00:09:56;3;3;
73565;PMS5003;61846;52.970;-3.168;2022-11-04T00:12:22;9;8;
73565;PMS5003;61846;52.970;-3.168;2022-11-04T00:14:48;8;5;
73565;PMS5003;61846;52.970;-3.168;2022-11-04T00:17:13;8;4;
73565;PMS5003;61846;52.970;-3.168;2022-11-04T00:19:38;8;7;
73565;PMS5003;61846;52.970;-3.168;2022-11-04T00:22:04;7;6;
73565;PMS5003;61846;52.970;-3.168;2022-11-04T00:24:30;10;5;
73565;PMS5003;61846;52.970;-3.168;2022-11-04T00:26:56;5;4;
73565;PMS5003;61846;52.970;-3.168;2022-11-04T00:29:21;4;4;
73565;PMS5003;61846;52.970;-3.168;2022-11-04T00:31:46;7;4;
73565;PMS5003;61846;52.970;-3.168;2022-11-04T00:34:12;5;5;
73565;PMS5003;61846;52.970;-3.168;2022-11-04T00:36:37;6;4;
73565;PMS5003;61846;52.970;-3.168;2022-11-04T00:39:03;4;4;
73565;PMS5003;61846;52.970;-3.168;2022-11-04T00:41:29;7;6;
73565;PMS5003;61846;52.970;-3.168;2022-11-04T00:43:55;8;7;
73565;PMS5003;61846;52.970;-3.168;2022-11-04T00:46:20;10;7;
73565;PMS5003;61846;52.970;-3.168;2022-11-04T00:48:45;5;5;
73565;PMS5003;61846;52.970;-3.168;2022-11-04T00:51:10;15;9;
73565;PMS5003;61846;52.970;-3.168;2022-11-04T00:53:36;10;7;
73565;PMS5003;61846;52.970;-3.168;2022-11-04T00:56:02;7;7;
73565;PMS5003;61846;52.970;-3.168;2022-11-04T00:58:27;7;7;
73565;PMS5003;61846;52.970;-3.168;2022-11-04T01:00:53;5;4;
73565;PMS5003;61846;52.970;-3.168;2022-11-04T01:03:19;5;4;
73565;PMS5003;61846;52.970;-3.168;2022-11-04T01:05:44;7;7;
73565;PMS5003;61846;52.970;-3.168;2022-11-04T01:08:10;6;5;
73565;PMS5003;61846;52.970;-3.168;2022-11-04T01:10:36;7;6;
73565;PMS5003;61846;52.970;-3.168;2022-11-04T01:13:01;7;7;
73565;PMS5003;61846;52.970;-3.168;2022-11-04T01:15:27;6;5;
73565;PMS5003;61846;52.970;-3.168;2022-11-04T01:17:53;11;9;
73565;PMS5003;61846;52.970;-3.168;2022-11-04T01:20:18;10;9;
73565;PMS5003;61846;52.970;-3.168;2022-11-04T01:22:44;6;5;
73565;PMS5003;61846;52.970;-3.168;2022-11-04T01:25:10;13;11;
73565;PMS5003;61846;52.970;-3.168;2022-11-04T01:27:35;9;7;
73565;PMS5003;61846;52.970;-3.168;2022-11-04T01:30:01;10;7;
73565;PMS5003;61846;52.970;-3.168;2022-11-04T01:32:27;8;7;
73565;PMS5003;61846;52.970;-3.168;2022-11-04T01:34:52;6;6;
73565;PMS5003;61846;52.970;-3.168;2022-11-04T01:37:18;8;5;
73565;PMS5003;61846;52.970;-3.168;2022-11-04T01:39:43;7;7;
73565;PMS5003;61846;52.970;-3.168;2022-11-04T01:42:11;8;5;
73565;PMS5003;61846;52.970;-3.168;2022-11-04T01:44:45;12;9;
73565;PMS5003;61846;52.970;-3.168;2022-11-04T01:47:00;9;6;
73565;PMS5003;61846;52.970;-3.168;2022-11-04T01:49:27;7;7;
73565;PMS5003;61846;52.970;-3.168;2022-11-04T01:51:52;9;9;
73565;PMS5003;61846;52.970;-3.168;2022-11-04T01:54:17;11;11;
73565;PMS5003;61846;52.970;-3.168;2022-11-04T01:56:42;8;6;
73565;PMS5003;61846;52.970;-3.168;2022-11-04T01:59:10;18;8;
73565;PMS5003;61846;52.970;-3.168;2022-11-04T02:01:33;17;9;
73565;PMS5003;61846;52.970;-3.168;2022-11-04T02:03:59;11;10;
73565;PMS5003;61846;52.970;-3.168;2022-11-04T02:06:24;13;12;
73565;PMS5003;61846;52.970;-3.168;2022-11-04T02:08:49;9;9;
73565;PMS5003;61846;52.970;-3.168;2022-11-04T02:11:15;14;11;
73565;PMS5003;61846;52.970;-3.168;2022-11-04T02:13:39;8;7;
73565;PMS5003;61846;52.970;-3.168;2022-11-04T02:16:08;15;12;
73565;PMS5003;61846;52.970;-3.168;2022-11-04T02:18:35;21;15;
73565;PMS5003;61846;52.970;-3.168;2022-11-04T02:21:00;16;14;
73565;PMS5003;61846;52.970;-3.168;2022-11-04T02:23:32;16;16;
73565;PMS5003;61846;52.970;-3.168;2022-11-04T02:30:39;11;11;
73565;PMS5003;61846;52.970;-3.168;2022-11-04T02:33:10;10;10;
73565;PMS5003;61846;52.970;-3.168;2022-11-04T02:35:32;17;12;
73565;PMS5003;61846;52.970;-3.168;2022-11-04T02:37:56;14;14;
73565;PMS5003;61846;52.970;-3.168;2022-11-04T02:40:21;17;12;
73565;PMS5003;61846;52.970;-3.168;2022-11-04T02:42:49;15;15;
73565;PMS5003;61846;52.970;-3.168;2022-11-04T02:45:12;12;12;
73565;PMS5003;61846;52.970;-3.168;2022-11-04T02:47:37;14;11;
73565;PMS5003;61846;52.970;-3.168;2022-11-04T02:50:03;18;14;
73565;PMS5003;61846;52.970;-3.168;2022-11-04T02:52:29;18;14;
73565;PMS5003;61846;52.970;-3.168;2022-11-04T02:54:55;19;17;
73565;PMS5003;61846;52.970;-3.168;2022-11-04T02:57:19;13;13;
73565;PMS5003;61846;52.970;-3.168;2022-11-04T02:59:45;20;13;
73565;PMS5003;61846;52.970;-3.168;2022-11-04T03:02:11;15;13;
73565;PMS5003;61846;52.970;-3.168;2022-11-04T03:04:36;24;17;
73565;PMS5003;61846;52.970;-3.168;2022-11-04T03:07:00;24;12;
73565;PMS5003;61846;52.970;-3.168;2022-11-04T03:09:26;10;10;
73565;PMS5003;61846;52.970;-3.168;2022-11-04T03:11:52;14;14;
73565;PMS5003;61846;52.970;-3.168;2022-11-04T03:14:17;14;13;
73565;PMS5003;61846;52.970;-3.168;2022-11-04T03:16:43;18;14;
73565;PMS5003;61846;52.970;-3.168;2022-11-04T03:19:10;15;15;
73565;PMS5003;61846;52.970;-3.168;2022-11-04T03:21:34;13;12;
73565;PMS5003;61846;52.970;-3.168;2022-11-04T03:23:59;16;13;
73565;PMS5003;61846;52.970;-3.168;2022-11-04T03:26:26;14;13;
73565;PMS5003;61846;52.970;-3.168;2022-11-04T03:28:51;14;10;
73565;PMS5003;61846;52.970;-3.168;2022-11-04T03:31:18;12;11;
73565;PMS5003;61846;52.970;-3.168;2022-11-04T03:33:41;14;11;
73565;PMS5003;61846;52.970;-3.168;2022-11-04T03:36:06;20;10;
73565;PMS5003;61846;52.970;-3.168;2022-11-04T03:38:32;18;11;
73565;PMS5003;61846;52.970;-3.168;2022-11-04T03:40:57;15;13;
73565;PMS5003;61846;52.970;-3.168;2022-11-04T03:43:24;12;11;
73565;PMS5003;61846;52.970;-3.168;2022-11-04T03:45:49;14;8;
73565;PMS5003;61846;52.970;-3.168;2022-11-04T03:48:13;8;8;
73565;PMS5003;61846;52.970;-3.168;2022-11-04T03:50:40;12;8;
73565;PMS5003;61846;52.970;-3.168;2022-11-04T03:53:05;11;10;
73565;PMS5003;61846;52.970;-3.168;2022-11-04T03:55:33;8;8;
73565;PMS5003;61846;52.970;-3.168;2022-11-04T03:57:57;10;9;
73565;PMS5003;61846;52.970;-3.168;2022-11-04T04:00:22;19;10;
73565;PMS5003;61846;52.970;-3.168;2022-11-04T04:02:51;16;10;
73565;PMS5003;61846;52.970;-3.168;2022-11-04T04:05:14;10;9;
73565;PMS5003;61846;52.970;-3.168;2022-11-04T04:07:40;10;8;
73565;PMS5003;61846;52.970;-3.168;2022-11-04T04:10:06;12;9;
73565;PMS5003;61846;52.970;-3.168;2022-11-04T04:12:31;12;9;
73565;PMS5003;61846;52.970;-3.168;2022-11-04T04:14:57;13;11;
73565;PMS5003;61846;52.970;-3.168;2022-11-04T04:17:22;9;9;
73565;PMS5003;61846;52.970;-3.168;2022-11-04T04:19:47;8;8;
73565;PMS5003;61846;52.970;-3.168;2022-11-04T04:22:12;9;9;
73565;PMS5003;61846;52.970;-3.168;2022-11-04T04:24:38;7;7;
73565;PMS5003;61846;52.970;-3.168;2022-11-04T04:27:03;11;11;
73565;PMS5003;61846;52.970;-3.168;2022-11-04T04:29:28;18;10;
73565;PMS5003;61846;52.970;-3.168;2022-11-04T04:31:55;8;8;
73565;PMS5003;61846;52.970;-3.168;2022-11-04T04:34:20;7;7;
73565;PMS5003;61846;52.970;-3.168;2022-11-04T04:36:47;8;8;
73565;PMS5003;61846;52.970;-3.168;2022-11-04T04:39:11;12;9;
73565;PMS5003;61846;52.970;-3.168;2022-11-04T04:41:37;13;9;
73565;PMS5003;61846;52.970;-3.168;2022-11-04T04:44:03;6;5;
73565;PMS5003;61846;52.970;-3.168;2022-11-04T04:46:28;10;9;
73565;PMS5003;61846;52.970;-3.168;2022-11-04T04:48:54;9;8;
73565;PMS5003;61846;52.970;-3.168;2022-11-04T04:51:20;8;7;
73565;PMS5003;61846;52.970;-3.168;2022-11-04T04:53:45;14;10;
73565;PMS5003;61846;52.970;-3.168;2022-11-04T04:56:10;12;12;
73565;PMS5003;61846;52.970;-3.168;2022-11-04T04:58:36;10;8;
73565;PMS5003;61846;52.970;-3.168;2022-11-04T05:01:02;13;11;
73565;PMS5003;61846;52.970;-3.168;2022-11-04T05:03:27;9;7;
73565;PMS5003;61846;52.970;-3.168;2022-11-04T05:05:53;9;9;
73565;PMS5003;61846;52.970;-3.168;2022-11-04T05:08:18;16;9;
73565;PMS5003;61846;52.970;-3.168;2022-11-04T05:10:44;14;14;
73565;PMS5003;61846;52.970;-3.168;2022-11-04T05:13:09;17;11;
73565;PMS5003;61846;52.970;-3.168;2022-11-04T05:15:34;12;11;
73565;PMS5003;61846;52.970;-3.168;2022-11-04T05:18:00;21;12;
73565;PMS5003;61846;52.970;-3.168;2022-11-04T05:20:25;11;10;
73565;PMS5003;61846;52.970;-3.168;2022-11-04T05:22:51;12;8;
73565;PMS5003;61846;52.970;-3.168;2022-11-04T05:25:16;11;10;
73565;PMS5003;61846;52.970;-3.168;2022-11-04T05:27:42;8;8;
73565;PMS5003;61846;52.970;-3.168;2022-11-04T05:30:08;8;8;
73565;PMS5003;61846;52.970;-3.168;2022-11-04T05:32:33;9;6;
73565;PMS5003;61846;52.970;-3.168;2022-11-04T05:34:59;12;10;
73565;PMS5003;61846;52.970;-3.168;2022-11-04T05:37:24;10;8;
73565;PMS5003;61846;52.970;-3.168;2022-11-04T05:39:50;11;7;
73565;PMS5003;61846;52.970;-3.168;2022-11-04T05:42:16;9;8;
73565;PMS5003;61846;52.970;-3.168;2022-11-04T05:44:41;7;6;
73565;PMS5003;61846;52.970;-3.168;2022-11-04T05:47:06;15;10;
73565;PMS5003;61846;52.970;-3.168;2022-11-04T05:49:32;9;8;
73565;PMS5003;61846;52.970;-3.168;2022-11-04T05:51:57;13;12;
73565;PMS5003;61846;52.970;-3.168;2022-11-04T05:54:23;8;8;
73565;PMS5003;61846;52.970;-3.168;2022-11-04T05:56:48;8;6;
73565;PMS5003;61846;52.970;-3.168;2022-11-04T05:59:14;9;8;
73565;PMS5003;61846;52.970;-3.168;2022-11-04T06:01:40;10;8;
73565;PMS5003;61846;52.970;-3.168;2022-11-04T06:04:06;8;6;
73565;PMS5003;61846;52.970;-3.168;2022-11-04T06:06:32;11;8;
73565;PMS5003;61846;52.970;-3.168;2022-11-04T06:08:57;13;8;
73565;PMS5003;61846;52.970;-3.168;2022-11-04T06:11:22;5;5;
73565;PMS5003;61846;52.970;-3.168;2022-11-04T06:13:48;7;7;
73565;PMS5003;61846;52.970;-3.168;2022-11-04T06:16:14;8;8;
73565;PMS5003;61846;52.970;-3.168;2022-11-04T06:18:39;7;7;
73565;PMS5003;61846;52.970;-3.168;2022-11-04T06:21:06;8;8;
73565;PMS5003;61846;52.970;-3.168;2022-11-04T06:23:31;7;6;
73565;PMS5003;61846;52.970;-3.168;2022-11-04T06:25:56;8;6;
73565;PMS5003;61846;52.970;-3.168;2022-11-04T06:28:22;7;7;
73565;PMS5003;61846;52.970;-3.168;2022-11-04T06:30:47;9;8;
73565;PMS5003;61846;52.970;-3.168;2022-11-04T06:33:13;6;6;
73565;PMS5003;61846;52.970;-3.168;2022-11-04T06:35:39;8;7;
73565;PMS5003;61846;52.970;-3.168;2022-11-04T06:38:04;11;8;
73565;PMS5003;61846;52.970;-3.168;2022-11-04T06:40:29;5;5;
73565;PMS5003;61846;52.970;-3.168;2022-11-04T06:42:55;9;7;
73565;PMS5003;61846;52.970;-3.168;2022-11-04T06:45:20;6;6;
73565;PMS5003;61846;52.970;-3.168;2022-11-04T06:47:46;6;6;
73565;PMS5003;61846;52.970;-3.168;2022-11-04T06:50:12;7;5;
73565;PMS5003;61846;52.970;-3.168;2022-11-04T06:52:38;9;8;
73565;PMS5003;61846;52.970;-3.168;2022-11-04T06:55:04;6;5;
73565;PMS5003;61846;52.970;-3.168;2022-11-04T06:57:29;5;5;
73565;PMS5003;61846;52.970;-3.168;2022-11-04T06:59:55;5;4;
73565;PMS5003;61846;52.970;-3.168;2022-11-04T07:02:20;10;8;
73565;PMS5003;61846;52.970;-3.168;2022-11-04T07:04:46;8;6;
73565;PMS5003;61846;52.970;-3.168;2022-11-04T07:07:12;7;7;
73565;PMS5003;61846;52.970;-3.168;2022-11-04T07:09:37;15;8;
73565;PMS5003;61846;52.970;-3.168;2022-11-04T07:12:03;6;6;
73565;PMS5003;61846;52.970;-3.168;2022-11-04T07:14:28;10;7;
73565;PMS5003;61846;52.970;-3.168;2022-11-04T07:16:54;7;6;
73565;PMS5003;61846;52.970;-3.168;2022-11-04T07:19:20;8;7;
73565;PMS5003;61846;52.970;-3.168;2022-11-04T07:21:45;8;6;
73565;PMS5003;61846;52.970;-3.168;2022-11-04T07:24:11;5;5;
73565;PMS5003;61846;52.970;-3.168;2022-11-04T07:26:36;6;6;
73565;PMS5003;61846;52.970;-3.168;2022-11-04T07:29:02;18;17;
73565;PMS5003;61846;52.970;-3.168;2022-11-04T07:31:28;14;14;
73565;PMS5003;61846;52.970;-3.168;2022-11-04T07:33:54;9;8;
73565;PMS5003;61846;52.970;-3.168;2022-11-04T07:36:19;7;7;
73565;PMS5003;61846;52.970;-3.168;2022-11-04T07:38:44;16;10;
73565;PMS5003;61846;52.970;-3.168;2022-11-04T07:41:10;10;10;
73565;PMS5003;61846;52.970;-3.168;2022-11-04T07:43:35;15;10;
73565;PMS5003;61846;52.970;-3.168;2022-11-04T07:46:01;9;9;
73565;PMS5003;61846;52.970;-3.168;2022-11-04T07:48:26;7;7;
73565;PMS5003;61846;52.970;-3.168;2022-11-04T07:50:53;8;8;
73565;PMS5003;61846;52.970;-3.168;2022-11-04T07:53:17;12;11;
73565;PMS5003;61846;52.970;-3.168;2022-11-04T07:55:43;10;10;
73565;PMS5003;61846;52.970;-3.168;2022-11-04T07:58:09;10;10;
73565;PMS5003;61846;52.970;-3.168;2022-11-04T08:00:34;12;11;
73565;PMS5003;61846;52.970;-3.168;2022-11-04T08:03:00;10;7;
73565;PMS5003;61846;52.970;-3.168;2022-11-04T08:05:26;8;5;
73565;PMS5003;61846;52.970;-3.168;2022-11-04T08:07:51;9;6;
73565;PMS5003;61846;52.970;-3.168;2022-11-04T08:10:17;13;11;
73565;PMS5003;61846;52.970;-3.168;2022-11-04T08:12:42;6;5;
73565;PMS5003;61846;52.970;-3.168;2022-11-04T08:15:08;12;12;
73565;PMS5003;61846;52.970;-3.168;2022-11-04T08:17:33;17;12;
73565;PMS5003;61846;52.970;-3.168;2022-11-04T08:19:59;13;11;
73565;PMS5003;61846;52.970;-3.168;2022-11-04T08:22:24;13;10;
73565;PMS5003;61846;52.970;-3.168;2022-11-04T08:24:49;16;14;
73565;PMS5003;61846;52.970;-3.168;2022-11-04T08:27:15;13;13;
73565;PMS5003;61846;52.970;-3.168;2022-11-04T08:29:41;11;10;
73565;PMS5003;61846;52.970;-3.168;2022-11-04T08:32:07;8;7;
73565;PMS5003;61846;52.970;-3.168;2022-11-04T08:34:32;7;6;
73565;PMS5003;61846;52.970;-3.168;2022-11-04T08:36:57;14;12;
73565;PMS5003;61846;52.970;-3.168;2022-11-04T08:39:23;17;16;
73565;PMS5003;61846;52.970;-3.168;2022-11-04T08:41:48;16;10;
73565;PMS5003;61846;52.970;-3.168;2022-11-04T08:44:14;11;11;
73565;PMS5003;61846;52.970;-3.168;2022-11-04T08:46:40;14;12;
73565;PMS5003;61846;52.970;-3.168;2022-11-04T08:49:05;21;12;
73565;PMS5003;61846;52.970;-3.168;2022-11-04T08:51:31;12;12;
73565;PMS5003;61846;52.970;-3.168;2022-11-04T08:53:56;16;15;
73565;PMS5003;61846;52.970;-3.168;2022-11-04T08:56:22;10;10;
73565;PMS5003;61846;52.970;-3.168;2022-11-04T08:58:47;12;12;
73565;PMS5003;61846;52.970;-3.168;2022-11-04T09:01:13;9;9;
73565;PMS5003;61846;52.970;-3.168;2022-11-04T09:03:39;11;11;
73565;PMS5003;61846;52.970;-3.168;2022-11-04T09:06:04;10;8;
73565;PMS5003;61846;52.970;-3.168;2022-11-04T09:08:29;8;8;
73565;PMS5003;61846;52.970;-3.168;2022-11-04T09:10:55;8;6;
73565;PMS5003;61846;52.970;-3.168;2022-11-04T09:13:20;12;9;
73565;PMS5003;61846;52.970;-3.168;2022-11-04T09:15:45;9;9;
73565;PMS5003;61846;52.970;-3.168;2022-11-04T09:18:11;9;7;
73565;PMS5003;61846;52.970;-3.168;2022-11-04T09:20:37;3;2;
73565;PMS5003;61846;52.970;-3.168;2022-11-04T09:23:02;5;5;
73565;PMS5003;61846;52.970;-3.168;2022-11-04T09:25:28;5;3;
73565;PMS5003;61846;52.970;-3.168;2022-11-04T09:27:53;4;3;
73565;PMS5003;61846;52.970;-3.168;2022-11-04T09:30:18;6;5;
73565;PMS5003;61846;52.970;-3.168;2022-11-04T09:32:44;2;1;
73565;PMS5003;61846;52.970;-3.168;2022-11-04T09:35:10;1;1;
73565;PMS5003;61846;52.970;-3.168;2022-11-04T09:37:35;3;2;
73565;PMS5003;61846;52.970;-3.168;2022-11-04T09:40:01;4;3;
73565;PMS5003;61846;52.970;-3.168;2022-11-04T09:42:31;1;1;
73565;PMS5003;61846;52.970;-3.168;2022-11-04T09:44:52;3;2;
73565;PMS5003;61846;52.970;-3.168;2022-11-04T09:47:17;1;1;
73565;PMS5003;61846;52.970;-3.168;2022-11-04T09:49:43;10;4;
73565;PMS5003;61846;52.970;-3.168;2022-11-04T09:52:11;5;4;
73565;PMS5003;61846;52.970;-3.168;2022-11-04T09:54:37;2;2;
73565;PMS5003;61846;52.970;-3.168;2022-11-04T09:56:59;2;1;
73565;PMS5003;61846;52.970;-3.168;2022-11-04T09:59:26;2;2;
73565;PMS5003;61846;52.970;-3.168;2022-11-04T10:01:53;4;1;
73565;PMS5003;61846;52.970;-3.168;2022-11-04T10:04:18;3;2;
73565;PMS5003;61846;52.970;-3.168;2022-11-04T10:06:44;4;3;
73565;PMS5003;61846;52.970;-3.168;2022-11-04T10:09:13;1;1;
73565;PMS5003;61846;52.970;-3.168;2022-11-04T10:11:34;2;1;
73565;PMS5003;61846;52.970;-3.168;2022-11-04T10:14:02;0;0;
73565;PMS5003;61846;52.970;-3.168;2022-11-04T10:16:27;3;1;
73565;PMS5003;61846;52.970;-3.168;2022-11-04T10:18:52;0;0;
73565;PMS5003;61846;52.970;-3.168;2022-11-04T10:21:16;4;3;
73565;PMS5003;61846;52.970;-3.168;2022-11-04T10:23:41;2;2;
73565;PMS5003;61846;52.970;-3.168;2022-11-04T10:26:07;2;1;
73565;PMS5003;61846;52.970;-3.168;2022-11-04T10:28:32;3;2;
73565;PMS5003;61846;52.970;-3.168;2022-11-04T10:30:56;3;1;
73565;PMS5003;61846;52.970;-3.168;2022-11-04T10:33:23;2;2;
73565;PMS5003;61846;52.970;-3.168;2022-11-04T10:35:48;1;0;
73565;PMS5003;61846;52.970;-3.168;2022-11-04T10:38:17;1;1;
73565;PMS5003;61846;52.970;-3.168;2022-11-04T10:40:38;0;0;
73565;PMS5003;61846;52.970;-3.168;2022-11-04T10:43:05;3;1;
73565;PMS5003;61846;52.970;-3.168;2022-11-04T10:45:30;3;1;
73565;PMS5003;61846;52.970;-3.168;2022-11-04T10:47:56;2;1;
73565;PMS5003;61846;52.970;-3.168;2022-11-04T10:50:22;4;1;
73565;PMS5003;61846;52.970;-3.168;2022-11-04T10:52:46;1;1;
73565;PMS5003;61846;52.970;-3.168;2022-11-04T10:55:14;2;2;
73565;PMS5003;61846;52.970;-3.168;2022-11-04T10:57:37;3;2;
73565;PMS5003;61846;52.970;-3.168;2022-11-04T11:00:03;2;1;
73565;PMS5003;61846;52.970;-3.168;2022-11-04T11:04:53;2;2;
73565;PMS5003;61846;52.970;-3.168;2022-11-04T11:07:19;2;0;
73565;PMS5003;61846;52.970;-3.168;2022-11-04T11:09:48;2;2;
73565;PMS5003;61846;52.970;-3.168;2022-11-04T11:14:36;3;1;
73565;PMS5003;61846;52.970;-3.168;2022-11-04T11:19:26;0;0;
73565;PMS5003;61846;52.970;-3.168;2022-11-04T11:21:53;0;0;
73565;PMS5003;61846;52.970;-3.168;2022-11-04T11:24:19;0;0;
73565;PMS5003;61846;52.970;-3.168;2022-11-04T11:26:43;2;1;
73565;PMS5003;61846;52.970;-3.168;2022-11-04T11:29:09;2;1;
73565;PMS5003;61846;52.970;-3.168;2022-11-04T11:31:34;3;2;
73565;PMS5003;61846;52.970;-3.168;2022-11-04T11:34:01;2;2;
73565;PMS5003;61846;52.970;-3.168;2022-11-04T11:36:26;5;3;
73565;PMS5003;61846;52.970;-3.168;2022-11-04T11:38:56;2;2;
73565;PMS5003;61846;52.970;-3.168;2022-11-04T11:41:16;1;1;
73565;PMS5003;61846;52.970;-3.168;2022-11-04T11:43:42;3;2;
73565;PMS5003;61846;52.970;-3.168;2022-11-04T11:46:07;3;1;
73565;PMS5003;61846;52.970;-3.168;2022-11-04T11:48:38;1;1;
73565;PMS5003;61846;52.970;-3.168;2022-11-04T11:50:58;0;0;
73565;PMS5003;61846;52.970;-3.168;2022-11-04T11:53:24;1;1;
73565;PMS5003;61846;52.970;-3.168;2022-11-04T11:55:51;1;1;
73565;PMS5003;61846;52.970;-3.168;2022-11-04T11:58:17;9;4;
73565;PMS5003;61846;52.970;-3.168;2022-11-04T12:00:41;2;1;
73565;PMS5003;61846;52.970;-3.168;2022-11-04T12:03:10;1;1;
73565;PMS5003;61846;52.970;-3.168;2022-11-04T12:05:35;2;2;
73565;PMS5003;61846;52.970;-3.168;2022-11-04T12:07:59;1;0;
73565;PMS5003;61846;52.970;-3.168;2022-11-04T12:10:24;0;0;
73565;PMS5003;61846;52.970;-3.168;2022-11-04T12:12:51;1;0;
73565;PMS5003;61846;52.970;-3.168;2022-11-04T12:15:17;2;2;
73565;PMS5003;61846;52.970;-3.168;2022-11-04T12:17:43;0;0;
73565;PMS5003;61846;52.970;-3.168;2022-11-04T12:20:11;0;0;
73565;PMS5003;61846;52.970;-3.168;2022-11-04T12:22:33;3;2;
73565;PMS5003;61846;52.970;-3.168;2022-11-04T12:25:00;1;0;
73565;PMS5003;61846;52.970;-3.168;2022-11-04T12:27:23;1;1;
73565;PMS5003;61846;52.970;-3.168;2022-11-04T12:29:51;0;0;
73565;PMS5003;61846;52.970;-3.168;2022-11-04T12:32:15;1;1;
73565;PMS5003;61846;52.970;-3.168;2022-11-04T12:34:41;0;0;
73565;PMS5003;61846;52.970;-3.168;2022-11-04T12:37:07;1;1;
73565;PMS5003;61846;52.970;-3.168;2022-11-04T12:39:33;1;1;
73565;PMS5003;61846;52.970;-3.168;2022-11-04T12:41:58;0;0;
73565;PMS5003;61846;52.970;-3.168;2022-11-04T12:44:23;0;0;
73565;PMS5003;61846;52.970;-3.168;2022-11-04T12:46:46;0;0;
73565;PMS5003;61846;52.970;-3.168;2022-11-04T12:49:21;2;1;
73565;PMS5003;61846;52.970;-3.168;2022-11-04T12:51:37;0;0;
73565;PMS5003;61846;52.970;-3.168;2022-11-04T12:54:06;0;0;
73565;PMS5003;61846;52.970;-3.168;2022-11-04T12:56:29;1;1;
73565;PMS5003;61846;52.970;-3.168;2022-11-04T13:01:20;4;1;
73565;PMS5003;61846;52.970;-3.168;2022-11-04T13:03:47;1;1;
73565;PMS5003;61846;52.970;-3.168;2022-11-04T13:06:11;2;1;
73565;PMS5003;61846;52.970;-3.168;2022-11-04T13:08:36;0;0;
73565;PMS5003;61846;52.970;-3.168;2022-11-04T13:11:02;2;1;
73565;PMS5003;61846;52.970;-3.168;2022-11-04T13:13:36;2;1;
73565;PMS5003;61846;52.970;-3.168;2022-11-04T13:15:52;1;1;
73565;PMS5003;61846;52.970;-3.168;2022-11-04T13:18:18;2;1;
73565;PMS5003;61846;52.970;-3.168;2022-11-04T13:20:43;0;0;
73565;PMS5003;61846;52.970;-3.168;2022-11-04T13:23:16;0;0;
73565;PMS5003;61846;52.970;-3.168;2022-11-04T13:25:35;2;1;
73565;PMS5003;61846;52.970;-3.168;2022-11-04T13:27:59;1;0;
73565;PMS5003;61846;52.970;-3.168;2022-11-04T13:30:26;0;0;
73565;PMS5003;61846;52.970;-3.168;2022-11-04T13:32:51;0;0;
73565;PMS5003;61846;52.970;-3.168;2022-11-04T13:35:18;0;0;
73565;PMS5003;61846;52.970;-3.168;2022-11-04T13:37:41;1;1;
73565;PMS5003;61846;52.970;-3.168;2022-11-04T13:40:10;0;0;
73565;PMS5003;61846;52.970;-3.168;2022-11-04T13:42:36;1;0;
73565;PMS5003;61846;52.970;-3.168;2022-11-04T13:44:57;0;0;
73565;PMS5003;61846;52.970;-3.168;2022-11-04T13:47:23;0;0;
73565;PMS5003;61846;52.970;-3.168;2022-11-04T13:49:49;0;0;
73565;PMS5003;61846;52.970;-3.168;2022-11-04T13:52:14;0;0;
73565;PMS5003;61846;52.970;-3.168;2022-11-04T13:54:40;0;0;
73565;PMS5003;61846;52.970;-3.168;2022-11-04T13:57:05;1;1;
73565;PMS5003;61846;52.970;-3.168;2022-11-04T13:59:30;0;0;
73565;PMS5003;61846;52.970;-3.168;2022-11-04T14:04:25;1;0;
73565;PMS5003;61846;52.970;-3.168;2022-11-04T14:06:49;2;1;
73565;PMS5003;61846;52.970;-3.168;2022-11-04T14:14:07;2;2;
73565;PMS5003;61846;52.970;-3.168;2022-11-04T14:18:54;2;2;
73565;PMS5003;61846;52.970;-3.168;2022-11-04T14:21:20;2;2;
73565;PMS5003;61846;52.970;-3.168;2022-11-04T14:23:46;0;0;
73565;PMS5003;61846;52.970;-3.168;2022-11-04T14:26:11;1;1;
73565;PMS5003;61846;52.970;-3.168;2022-11-04T14:28:36;7;7;
73565;PMS5003;61846;52.970;-3.168;2022-11-04T14:31:02;2;2;
73565;PMS5003;61846;52.970;-3.168;2022-11-04T14:33:30;3;3;
73565;PMS5003;61846;52.970;-3.168;2022-11-04T14:35:53;4;1;
73565;PMS5003;61846;52.970;-3.168;2022-11-04T14:38:20;4;4;
73565;PMS5003;61846;52.970;-3.168;2022-11-04T14:40:45;0;0;
73565;PMS5003;61846;52.970;-3.168;2022-11-04T14:43:12;2;2;
73565;PMS5003;61846;52.970;-3.168;2022-11-04T14:45:37;1;1;
73565;PMS5003;61846;52.970;-3.168;2022-11-04T14:48:11;0;0;
73565;PMS5003;61846;52.970;-3.168;2022-11-04T14:50:26;3;1;
73565;PMS5003;61846;52.970;-3.168;2022-11-04T14:52:52;4;1;
73565;PMS5003;61846;52.970;-3.168;2022-11-04T14:55:17;1;1;
73565;PMS5003;61846;52.970;-3.168;2022-11-04T14:57:43;2;1;
73565;PMS5003;61846;52.970;-3.168;2022-11-04T15:02:33;0;0;
73565;PMS5003;61846;52.970;-3.168;2022-11-04T15:04:59;1;1;
73565;PMS5003;61846;52.970;-3.168;2022-11-04T15:07:25;2;0;
73565;PMS5003;61846;52.970;-3.168;2022-11-04T15:09:50;2;1;
73565;PMS5003;61846;52.970;-3.168;2022-11-04T15:12:16;1;1;
73565;PMS5003;61846;52.970;-3.168;2022-11-04T15:14:40;0;0;
73565;PMS5003;61846;52.970;-3.168;2022-11-04T15:17:09;0;0;
73565;PMS5003;61846;52.970;-3.168;2022-11-04T15:19:32;1;1;
73565;PMS5003;61846;52.970;-3.168;2022-11-04T15:21:57;2;1;
73565;PMS5003;61846;52.970;-3.168;2022-11-04T15:24:22;0;0;
73565;PMS5003;61846;52.970;-3.168;2022-11-04T15:26:48;0;0;
73565;PMS5003;61846;52.970;-3.168;2022-11-04T15:29:14;0;0;
73565;PMS5003;61846;52.970;-3.168;2022-11-04T15:31:49;2;2;
73565;PMS5003;61846;52.970;-3.168;2022-11-04T15:34:05;1;1;
73565;PMS5003;61846;52.970;-3.168;2022-11-04T15:36:31;5;4;
73565;PMS5003;61846;52.970;-3.168;2022-11-04T15:38:57;4;1;
73565;PMS5003;61846;52.970;-3.168;2022-11-04T15:41:22;5;5;
73565;PMS5003;61846;52.970;-3.168;2022-11-04T15:43:47;3;3;
73565;PMS5003;61846;52.970;-3.168;2022-11-04T15:46:16;4;4;
73565;PMS5003;61846;52.970;-3.168;2022-11-04T15:48:37;5;3;
73565;PMS5003;61846;52.970;-3.168;2022-11-04T15:51:07;3;1;
73565;PMS5003;61846;52.970;-3.168;2022-11-04T15:53:28;1;0;
73565;PMS5003;61846;52.970;-3.168;2022-11-04T15:55:54;1;0;
73565;PMS5003;61846;52.970;-3.168;2022-11-04T15:58:20;2;1;
73565;PMS5003;61846;52.970;-3.168;2022-11-04T16:03:16;2;2;
73565;PMS5003;61846;52.970;-3.168;2022-11-04T16:05:36;1;1;
73565;PMS5003;61846;52.970;-3.168;2022-11-04T16:10:28;1;1;
73565;PMS5003;61846;52.970;-3.168;2022-11-04T16:12:53;1;1;
73565;PMS5003;61846;52.970;-3.168;2022-11-04T16:17:43;1;1;
73565;PMS5003;61846;52.970;-3.168;2022-11-04T16:22:36;2;2;
73565;PMS5003;61846;52.970;-3.168;2022-11-04T16:25:01;2;2;
73565;PMS5003;61846;52.970;-3.168;2022-11-04T16:27:26;1;1;
73565;PMS5003;61846;52.970;-3.168;2022-11-04T16:29:53;5;3;
73565;PMS5003;61846;52.970;-3.168;2022-11-04T16:32:18;0;0;
73565;PMS5003;61846;52.970;-3.168;2022-11-04T16:34:43;2;2;
73565;PMS5003;61846;52.970;-3.168;2022-11-04T16:37:08;2;2;
73565;PMS5003;61846;52.970;-3.168;2022-11-04T16:39:34;3;1;
73565;PMS5003;61846;52.970;-3.168;2022-11-04T16:41:59;3;2;
73565;PMS5003;61846;52.970;-3.168;2022-11-04T16:44:25;0;0;
73565;PMS5003;61846;52.970;-3.168;2022-11-04T16:46:50;3;3;
73565;PMS5003;61846;52.970;-3.168;2022-11-04T16:49:16;3;3;